Time;durP1;ratioP1;P1;durP2;ratioP2;P2;SDS_P1;SDS_P2;PMS_P1;PMS_P2;Temp;Humidity;BMP_temperature;BMP_pressure;BME280_temperature;BME280_humidity;BME280_pressure;Samples;Min_cycle;Max_cycle;Signal;HPM_P1;HPM_P2
2022/09/16 00:00:58;;;;;;;5.32;3.65;;;;;;;11.76;100.00;97593.94;2611998;28;20076;-83
2022/09/16 00:02:27;;;;;;;7.72;3.40;;;;;;;11.69;100.00;97593.38;2611508;28;20056;-85
2022/09/16 00:03:43;;;;;;;7.25;3.42;;;;;;;11.68;100.00;97596.91;2610121;28;20533;-83
2022/09/16 00:04:58;;;;;;;8.57;3.25;;;;;;;11.77;100.00;97593.03;2610667;28;20049;-83
2022/09/16 00:06:26;;;;;;;5.95;3.35;;;;;;;11.82;100.00;97586.63;2610169;28;20135;-84
2022/09/16 00:07:41;;;;;;;9.43;3.80;;;;;;;11.88;100.00;97588.13;2609271;28;20085;-83
2022/09/16 00:09:02;;;;;;;3.67;3.00;;;;;;;11.89;100.00;97587.19;2609785;28;20093;-82
2022/09/16 00:10:18;;;;;;;5.88;3.53;;;;;;;11.85;100.00;97588.25;2611562;28;20063;-82
2022/09/16 00:11:33;;;;;;;4.90;3.53;;;;;;;11.83;100.00;97587.47;2610810;28;20418;-83
2022/09/16 00:12:49;;;;;;;5.78;3.15;;;;;;;11.81;100.00;97590.19;2611636;28;20052;-83
2022/09/16 00:14:05;;;;;;;9.93;4.30;;;;;;;11.89;100.00;97597.69;2611068;28;20561;-82
2022/09/16 00:15:20;;;;;;;6.28;3.03;;;;;;;11.91;100.00;97593.22;2610736;28;20079;-85
2022/09/16 00:16:36;;;;;;;7.75;3.53;;;;;;;11.96;100.00;97593.84;2610424;28;20127;-83
2022/09/16 00:17:51;;;;;;;5.63;3.25;;;;;;;11.80;100.00;97587.63;2611289;28;20140;-83
2022/09/16 00:19:08;;;;;;;4.30;2.88;;;;;;;11.79;100.00;97580.69;2611786;28;20047;-82
2022/09/16 00:20:23;;;;;;;5.03;3.10;;;;;;;11.90;100.00;97586.28;2611804;28;20048;-82
2022/09/16 00:21:39;;;;;;;4.82;3.00;;;;;;;11.90;100.00;97591.53;2610977;28;20053;-85
2022/09/16 00:22:54;;;;;;;5.72;2.95;;;;;;;11.92;100.00;97586.19;2612799;28;20061;-83
2022/09/16 00:24:12;;;;;;;7.25;3.35;;;;;;;11.87;100.00;97589.03;2610588;28;20056;-82
2022/09/16 00:25:28;;;;;;;6.88;3.35;;;;;;;11.90;100.00;97581.03;2611050;28;20193;-83
2022/09/16 00:26:44;;;;;;;5.03;3.22;;;;;;;11.97;100.00;97587.66;2610143;28;20075;-81
2022/09/16 00:27:59;;;;;;;7.40;3.30;;;;;;;11.96;100.00;97585.13;2611886;28;20084;-82
2022/09/16 00:29:15;;;;;;;4.55;3.15;;;;;;;11.96;100.00;97585.97;2611207;28;20053;-82
2022/09/16 00:30:30;;;;;;;5.07;3.05;;;;;;;11.96;100.00;97585.97;2610734;28;20090;-83
2022/09/16 00:31:46;;;;;;;4.75;3.13;;;;;;;11.85;100.00;97583.88;2611897;28;20139;-83
2022/09/16 00:33:02;;;;;;;4.70;3.45;;;;;;;11.95;100.00;97592.16;2611703;28;20080;-82
2022/09/16 00:34:18;;;;;;;4.38;2.92;;;;;;;11.99;100.00;97596.31;2612651;28;20053;-82
2022/09/16 00:35:34;;;;;;;5.43;3.45;;;;;;;11.95;100.00;97593.94;2612671;28;20044;-85
2022/09/16 00:36:49;;;;;;;5.55;2.80;;;;;;;11.99;100.00;97588.44;2609931;28;20123;-82
2022/09/16 00:38:05;;;;;;;9.68;3.33;;;;;;;11.95;100.00;97586.91;2611797;28;20088;-82
2022/09/16 00:39:20;;;;;;;4.53;3.13;;;;;;;11.82;100.00;97589.25;2611314;28;20146;-82
2022/09/16 00:40:46;;;;;;;5.32;3.38;;;;;;;11.91;100.00;97587.97;2610655;28;20102;-85
2022/09/16 00:42:03;;;;;;;4.70;3.08;;;;;;;11.94;100.00;97589.56;2611073;28;20079;-82
2022/09/16 00:43:19;;;;;;;5.78;3.40;;;;;;;11.84;100.00;97591.78;2612967;28;20055;-85
2022/09/16 00:45:01;;;;;;;5.28;3.00;;;;;;;11.72;100.00;97578.31;2611224;28;20414;-82
2022/09/16 00:46:22;;;;;;;10.48;2.97;;;;;;;11.72;100.00;97587.97;2598788;28;20075;-82
2022/09/16 00:47:42;;;;;;;9.27;2.97;;;;;;;11.78;100.00;97598.16;2605021;28;20479;-82
2022/09/16 00:49:04;;;;;;;4.65;2.80;;;;;;;11.53;100.00;97586.22;2611750;28;20227;-82
2022/09/16 00:50:30;;;;;;;4.97;3.15;;;;;;;11.71;100.00;97587.13;2612249;28;20124;-82
2022/09/16 00:51:49;;;;;;;4.97;3.03;;;;;;;11.76;100.00;97581.66;2611303;28;20378;-83
2022/09/16 00:53:11;;;;;;;5.15;3.33;;;;;;;11.77;100.00;97583.38;2611255;28;20102;-83
2022/09/16 00:54:29;;;;;;;5.63;2.92;;;;;;;11.80;100.00;97580.59;2609631;28;20044;-83
2022/09/16 00:55:45;;;;;;;4.72;2.75;;;;;;;11.96;100.00;97588.59;2612343;28;20059;-84
2022/09/16 00:57:03;;;;;;;5.00;3.03;;;;;;;11.97;100.00;97579.78;2609659;28;20495;-83
2022/09/16 00:58:31;;;;;;;6.45;4.13;;;;;;;11.92;100.00;97579.19;2609307;28;20105;-84
2022/09/16 00:59:54;;;;;;;6.25;2.97;;;;;;;11.98;100.00;97583.28;2612575;28;20057;-85
2022/09/16 01:01:09;;;;;;;5.22;3.10;;;;;;;11.97;100.00;97585.03;2611836;28;20148;-82
2022/09/16 01:02:26;;;;;;;6.65;2.70;;;;;;;12.04;100.00;97584.81;2612109;28;20060;-82
2022/09/16 01:03:53;;;;;;;4.85;3.03;;;;;;;12.08;100.00;97581.09;2609765;28;20045;-82
2022/09/16 01:05:14;;;;;;;4.50;2.75;;;;;;;12.06;100.00;97590.81;2609909;28;20544;-82
2022/09/16 01:06:31;;;;;;;6.60;2.75;;;;;;;11.98;100.00;97586.75;2609263;28;20049;-86
2022/09/16 01:07:51;;;;;;;10.82;3.20;;;;;;;11.99;100.00;97579.75;2610756;28;20182;-83
2022/09/16 01:09:06;;;;;;;7.00;2.80;;;;;;;12.06;100.00;97585.56;2611511;28;20469;-82
2022/09/16 01:10:24;;;;;;;5.43;2.92;;;;;;;12.11;100.00;97583.56;2610905;28;20084;-85
2022/09/16 01:11:40;;;;;;;6.68;2.45;;;;;;;12.09;100.00;97591.53;2609619;28;20110;-81
2022/09/16 01:12:59;;;;;;;5.90;3.05;;;;;;;12.08;100.00;97594.22;2611391;28;20076;-81
2022/09/16 01:15:59;;;;;;;7.82;2.88;;;;;;;12.16;100.00;97584.22;2610345;28;20126;-82
2022/09/16 01:17:24;;;;;;;4.30;2.60;;;;;;;12.16;100.00;97589.47;2611239;28;20087;-84
2022/09/16 01:18:50;;;;;;;4.63;2.58;;;;;;;12.13;100.00;97592.22;2613212;28;20048;-83
2022/09/16 01:20:32;;;;;;;7.05;2.65;;;;;;;11.97;100.00;97581.59;2611000;28;20072;-87
2022/09/16 01:22:12;;;;;;;3.55;2.60;;;;;;;12.02;100.00;97586.66;2602448;28;20056;-82
2022/09/16 01:23:49;;;;;;;4.53;2.50;;;;;;;11.82;100.00;97576.16;2611386;28;20395;-85
2022/09/16 01:25:42;;;;;;;5.88;2.42;;;;;;;11.77;100.00;97575.50;2613783;28;20457;-82
2022/09/16 01:27:32;;;;;;;4.85;2.38;;;;;;;11.83;100.00;97579.59;2601700;28;20049;-83
2022/09/16 01:29:11;;;;;;;4.85;2.47;;;;;;;11.89;100.00;97583.72;2610930;28;20497;-82
2022/09/16 01:30:54;;;;;;;4.53;2.45;;;;;;;12.04;100.00;97580.38;2611031;28;20048;-82
2022/09/16 01:32:38;;;;;;;2.78;2.47;;;;;;;12.06;100.00;97577.72;2610977;28;20555;-86
2022/09/16 01:34:19;;;;;;;7.90;2.90;;;;;;;12.00;100.00;97574.41;2611108;28;20045;-83
2022/09/16 01:36:00;;;;;;;4.68;3.30;;;;;;;12.13;100.00;97577.34;2613480;28;20122;-82
2022/09/16 01:37:27;;;;;;;4.07;2.63;;;;;;;12.02;100.00;97573.53;2611784;28;20247;-82
2022/09/16 01:38:55;;;;;;;5.60;2.38;;;;;;;11.97;100.00;97571.94;2612925;28;20350;-82
2022/09/16 01:40:21;;;;;;;4.60;2.38;;;;;;;12.00;100.00;97570.94;2612408;28;20487;-83
2022/09/16 01:41:50;;;;;;;3.08;2.45;;;;;;;11.90;100.00;97574.91;2612278;28;20053;-81
2022/09/16 01:43:20;;;;;;;3.22;2.45;;;;;;;12.09;100.00;97574.94;2613378;28;20053;-84
2022/09/16 01:44:47;;;;;;;5.88;2.30;;;;;;;11.93;100.00;97574.75;2612268;28;20151;-83
2022/09/16 01:46:17;;;;;;;3.83;2.65;;;;;;;12.03;100.00;97583.09;2613935;28;20138;-82
2022/09/16 01:48:02;;;;;;;5.43;2.72;;;;;;;12.13;100.00;97579.97;2610132;28;20059;-82
2022/09/16 01:49:41;;;;;;;6.25;2.60;;;;;;;12.08;100.00;97584.59;2607501;28;20053;-82
2022/09/16 01:51:12;;;;;;;2.88;2.38;;;;;;;12.13;100.00;97579.97;2613421;28;20052;-83
2022/09/16 01:52:48;;;;;;;3.72;2.60;;;;;;;12.15;100.00;97585.97;2602329;28;20045;-82
2022/09/16 01:54:22;;;;;;;6.88;2.70;;;;;;;12.16;100.00;97584.22;2607372;28;20062;-82
2022/09/16 01:55:44;;;;;;;6.40;2.63;;;;;;;12.13;100.00;97579.09;2613121;28;20552;-82
2022/09/16 01:57:26;;;;;;;3.10;2.50;;;;;;;12.21;100.00;97576.97;2612360;28;20399;-83
2022/09/16 01:58:58;;;;;;;3.85;2.80;;;;;;;12.24;100.00;97575.97;2613337;28;20104;-83
2022/09/16 02:00:14;;;;;;;3.47;2.53;;;;;;;12.29;100.00;97571.34;2614761;28;20068;-82
2022/09/16 02:01:36;;;;;;;5.88;2.30;;;;;;;12.27;100.00;97566.16;2613845;28;20520;-83
2022/09/16 02:03:15;;;;;;;6.18;2.65;;;;;;;12.28;100.00;97567.00;2612333;28;20049;-83
2022/09/16 02:04:39;;;;;;;3.53;2.10;;;;;;;12.26;100.00;97569.69;2614103;28;20052;-82
2022/09/16 02:06:02;;;;;;;3.05;1.95;;;;;;;12.14;100.00;97565.03;2612007;28;20102;-82
2022/09/16 02:07:22;;;;;;;4.22;2.28;;;;;;;12.05;100.00;97578.63;2611901;28;20056;-83
2022/09/16 02:08:46;;;;;;;3.40;2.50;;;;;;;11.90;100.00;97570.53;2613498;28;20624;-88
2022/09/16 02:10:12;;;;;;;4.68;2.58;;;;;;;11.92;100.00;97575.69;2614529;28;20080;-83
2022/09/16 02:11:28;;;;;;;4.18;2.58;;;;;;;12.01;100.00;97580.50;2614047;28;20475;-82
2022/09/16 02:12:48;;;;;;;4.25;2.72;;;;;;;11.98;100.00;97575.41;2612929;28;20053;-86
2022/09/16 02:14:14;;;;;;;4.90;2.47;;;;;;;11.99;100.00;97577.13;2613308;28;20044;-83
2022/09/16 02:15:32;;;;;;;5.88;2.83;;;;;;;11.92;100.00;97575.69;2612727;28;20060;-83
2022/09/16 02:17:00;;;;;;;5.80;3.20;;;;;;;11.93;100.00;97580.00;2612934;28;20048;-83
2022/09/16 02:18:23;;;;;;;4.13;2.65;;;;;;;12.02;100.00;97581.41;2613917;28;20427;-82
2022/09/16 02:20:11;;;;;;;6.80;2.65;;;;;;;12.13;100.00;97585.22;2618468;28;20071;-83
2022/09/16 02:21:30;;;;;;;4.18;2.35;;;;;;;12.15;100.00;97585.13;2611836;28;20064;-83
2022/09/16 02:22:50;;;;;;;5.97;2.33;;;;;;;12.21;100.00;97579.59;2619005;28;20134;-82
2022/09/16 02:24:12;;;;;;;3.20;2.60;;;;;;;12.24;100.00;97579.44;2614008;28;20049;-83
2022/09/16 02:25:31;;;;;;;4.32;2.40;;;;;;;12.29;100.00;97582.69;2611141;28;20055;-83
2022/09/16 02:26:53;;;;;;;3.13;2.47;;;;;;;12.24;100.00;97583.84;2611357;28;20053;-82
2022/09/16 02:28:15;;;;;;;3.10;2.33;;;;;;;12.11;100.00;97578.31;2613397;28;20055;-82
2022/09/16 02:29:38;;;;;;;9.47;2.70;;;;;;;12.10;100.00;97587.13;2611718;28;20660;-83
2022/09/16 02:30:57;;;;;;;4.70;2.70;;;;;;;12.05;100.00;97589.13;2610485;28;20469;-84
2022/09/16 02:32:13;;;;;;;4.38;2.40;;;;;;;12.10;100.00;97581.88;2612826;28;20060;-83
2022/09/16 02:33:37;;;;;;;4.43;2.58;;;;;;;12.09;100.00;97588.03;2613553;28;20127;-83
2022/09/16 02:34:54;;;;;;;7.43;2.88;;;;;;;12.18;100.00;97587.63;2613382;28;20052;-86
2022/09/16 02:36:15;;;;;;;5.10;2.67;;;;;;;12.20;100.00;97590.16;2610587;28;20495;-83
2022/09/16 02:37:37;;;;;;;4.35;2.40;;;;;;;12.21;100.00;97590.09;2611859;28;20049;-84
2022/09/16 02:39:08;;;;;;;4.05;2.42;;;;;;;12.24;100.00;97583.84;2612620;28;20079;-83
2022/09/16 02:40:34;;;;;;;6.32;2.88;;;;;;;12.21;100.00;97587.47;2611326;28;20057;-88
2022/09/16 02:41:49;;;;;;;5.28;2.28;;;;;;;12.11;100.00;97591.44;2612847;28;20053;-83
2022/09/16 02:43:04;;;;;;;6.22;2.50;;;;;;;12.10;100.00;97587.13;2611815;28;20059;-83
2022/09/16 02:44:20;;;;;;;4.10;2.78;;;;;;;12.00;100.00;97584.91;2611340;28;20135;-83
2022/09/16 02:45:44;;;;;;;5.15;3.05;;;;;;;12.10;100.00;97584.50;2611265;28;20053;-83
2022/09/16 02:47:14;;;;;;;6.85;3.20;;;;;;;11.87;100.00;97582.00;2612330;28;20513;-84
2022/09/16 02:48:49;;;;;;;7.03;3.25;;;;;;;11.91;100.00;97581.88;2611939;28;20077;-87
2022/09/16 02:50:13;;;;;;;7.78;4.30;;;;;;;12.04;100.00;97582.19;2612191;28;20045;-85
2022/09/16 02:51:41;;;;;;;7.13;3.95;;;;;;;12.14;100.00;97583.41;2613046;28;20048;-83
2022/09/16 02:53:02;;;;;;;6.32;3.70;;;;;;;11.99;100.00;97580.56;2612092;28;20055;-89
2022/09/16 02:54:38;;;;;;;4.30;3.42;;;;;;;11.92;100.00;97586.19;2611243;28;20044;-83
2022/09/16 02:56:04;;;;;;;4.75;3.00;;;;;;;11.76;100.00;97570.34;2611274;28;20080;-84
2022/09/16 02:57:20;;;;;;;4.45;2.95;;;;;;;11.66;100.00;97562.91;2611909;28;20056;-84
2022/09/16 02:58:37;;;;;;;5.70;2.80;;;;;;;11.92;100.00;97573.94;2613275;28;20053;-83
2022/09/16 02:59:53;;;;;;;7.68;2.90;;;;;;;11.98;100.00;97567.53;2610343;28;20110;-82
2022/09/16 03:01:12;;;;;;;5.00;2.70;;;;;;;12.05;100.00;97566.34;2610924;28;20045;-83
2022/09/16 03:02:27;;;;;;;7.35;2.78;;;;;;;11.84;100.00;97563.81;2611516;28;20045;-82
2022/09/16 03:03:43;;;;;;;5.07;2.70;;;;;;;11.96;100.00;97566.78;2611577;28;20045;-83
2022/09/16 03:04:59;;;;;;;4.53;3.00;;;;;;;12.05;100.00;97574.22;2611768;28;20114;-82
2022/09/16 03:06:26;;;;;;;5.60;3.17;;;;;;;12.13;100.00;97571.22;2611773;28;20115;-83
2022/09/16 03:07:42;;;;;;;6.93;3.28;;;;;;;12.11;100.00;97566.06;2612768;28;20044;-83
2022/09/16 03:08:59;;;;;;;4.72;2.78;;;;;;;11.98;100.00;97565.75;2613272;28;20055;-83
2022/09/16 03:10:15;;;;;;;4.80;3.08;;;;;;;12.10;100.00;97563.50;2611438;28;20049;-83
2022/09/16 03:11:30;;;;;;;3.63;2.75;;;;;;;12.11;100.00;97568.69;2613027;28;20052;-83
2022/09/16 03:13:01;;;;;;;4.00;2.97;;;;;;;12.14;100.00;97563.28;2611754;28;20102;-83
2022/09/16 03:14:17;;;;;;;4.90;2.80;;;;;;;12.26;100.00;97566.25;2611649;28;20045;-83
2022/09/16 03:15:45;;;;;;;5.20;2.60;;;;;;;12.00;100.00;97565.69;2611077;28;20045;-83
2022/09/16 03:17:11;;;;;;;4.35;2.75;;;;;;;11.80;100.00;97556.16;2611797;28;20084;-83
2022/09/16 03:19:15;;;;;;;4.22;2.63;;;;;;;12.02;100.00;97563.88;2610824;28;20056;-85
2022/09/16 03:20:39;;;;;;;3.60;3.03;;;;;;;12.12;100.00;97564.28;2598676;28;20679;-82
2022/09/16 03:22:22;;;;;;;4.35;2.63;;;;;;;12.18;100.00;97561.38;2599126;28;20633;-84
2022/09/16 03:23:56;;;;;;;;;;;;;;;12.15;100.00;97551.00;2611044;28;20644;-81
2022/09/16 03:25:31;;;;;;;5.47;2.60;;;;;;;12.19;100.00;97560.44;2612463;28;20363;-83
2022/09/16 03:26:58;;;;;;;3.75;2.63;;;;;;;12.22;100.00;97562.91;2611301;28;20056;-82
2022/09/16 03:28:26;;;;;;;4.05;2.40;;;;;;;12.24;100.00;97558.44;2611016;28;20072;-84
2022/09/16 03:29:56;;;;;;;6.72;2.47;;;;;;;12.29;100.00;97553.81;2611096;28;20052;-83
2022/09/16 03:31:28;;;;;;;5.55;2.90;;;;;;;12.30;100.00;97554.66;2611561;28;20555;-83
2022/09/16 03:32:51;;;;;;;4.05;2.90;;;;;;;12.33;100.00;97557.13;2612977;28;20076;-83
2022/09/16 03:34:16;;;;;;;6.30;2.60;;;;;;;12.31;100.00;97561.59;2612100;28;20045;-84
2022/09/16 03:35:44;;;;;;;4.88;2.92;;;;;;;12.33;100.00;97558.91;2611315;28;20414;-86
2022/09/16 03:37:07;;;;;;;4.55;2.83;;;;;;;12.39;100.00;97551.59;2612056;28;20063;-84
2022/09/16 03:38:23;;;;;;;5.53;2.88;;;;;;;12.35;100.00;97552.66;2610439;28;20055;-88
2022/09/16 03:39:40;;;;;;;5.20;2.80;;;;;;;12.40;100.00;97555.03;2610013;28;20053;-84
2022/09/16 03:40:56;;;;;;;5.47;2.65;;;;;;;12.43;100.00;97555.75;2611041;28;20863;-86
2022/09/16 03:42:12;;;;;;;3.30;2.70;;;;;;;12.37;100.00;97548.19;2612668;28;20053;-84
2022/09/16 03:43:27;;;;;;;6.50;3.10;;;;;;;12.39;100.00;97551.59;2611691;28;20716;-89
2022/09/16 03:44:51;;;;;;;3.83;2.67;;;;;;;12.34;100.00;97545.69;2613116;28;20388;-88
2022/09/16 03:46:11;;;;;;;6.95;2.90;;;;;;;12.42;100.00;97550.56;2600314;28;20061;-84
2022/09/16 03:47:26;;;;;;;3.33;2.70;;;;;;;12.39;100.00;97545.47;2605438;28;20380;-89
2022/09/16 03:48:42;;;;;;;5.90;2.80;;;;;;;12.40;100.00;97547.16;2610540;28;20060;-83
2022/09/16 03:49:57;;;;;;;3.35;2.63;;;;;;;12.18;100.00;97548.25;2610860;28;20041;-85
2022/09/16 03:51:13;;;;;;;4.78;2.88;;;;;;;12.23;100.00;97551.50;2612208;28;20466;-82
2022/09/16 03:52:29;;;;;;;4.75;2.70;;;;;;;12.28;100.00;97546.84;2612410;28;20048;-82
2022/09/16 03:53:44;;;;;;;2.75;2.33;;;;;;;12.24;100.00;97545.31;2610349;28;20139;-82
2022/09/16 03:55:00;;;;;;;3.35;2.78;;;;;;;12.18;100.00;97550.00;2611336;28;20070;-85
2022/09/16 03:56:18;;;;;;;7.78;2.97;;;;;;;12.19;100.00;97547.31;2611089;28;20534;-82
2022/09/16 03:57:34;;;;;;;4.93;2.90;;;;;;;12.07;100.00;97550.53;2610937;28;20168;-83
2022/09/16 03:58:50;;;;;;;7.20;2.88;;;;;;;11.99;100.00;97543.00;2609775;28;20056;-83
2022/09/16 04:00:07;;;;;;;4.57;2.53;;;;;;;11.87;100.00;97547.06;2609796;28;20059;-81
2022/09/16 04:01:23;;;;;;;5.00;2.83;;;;;;;11.90;100.00;97540.81;2610271;28;20415;-83
2022/09/16 04:02:38;;;;;;;6.53;2.78;;;;;;;11.80;100.00;97540.41;2612225;28;20259;-86
2022/09/16 04:03:55;;;;;;;5.82;3.05;;;;;;;11.73;100.00;97542.47;2612883;28;20560;-83
2022/09/16 04:05:10;;;;;;;8.10;3.03;;;;;;;11.85;100.00;97539.28;2610992;28;20354;-83
2022/09/16 04:06:26;;;;;;;5.45;2.97;;;;;;;11.81;100.00;97542.13;2609538;28;20053;-83
2022/09/16 04:07:42;;;;;;;6.10;2.97;;;;;;;11.83;100.00;97538.50;2610263;28;20051;-83
2022/09/16 04:08:59;;;;;;;5.38;3.22;;;;;;;11.97;100.00;97539.63;2610286;28;20052;-83
2022/09/16 04:10:15;;;;;;;5.43;3.08;;;;;;;12.04;100.00;97534.97;2611971;28;20045;-83
2022/09/16 04:11:31;;;;;;;6.00;2.90;;;;;;;12.00;100.00;97539.47;2610046;28;20904;-84
2022/09/16 04:12:46;;;;;;;5.13;3.03;;;;;;;11.92;100.00;97536.34;2610430;28;20058;-81
2022/09/16 04:14:03;;;;;;;7.13;3.40;;;;;;;11.92;100.00;97536.34;2610191;28;20052;-81
2022/09/16 04:15:18;;;;;;;4.22;3.00;;;;;;;11.84;100.00;97534.09;2609259;28;20103;-82
2022/09/16 04:16:35;;;;;;;6.95;3.60;;;;;;;11.84;100.00;97541.97;2609433;28;20049;-82
2022/09/16 04:17:50;;;;;;;6.85;3.42;;;;;;;12.00;100.00;97535.03;2611147;28;20049;-81
2022/09/16 04:19:06;;;;;;;3.55;2.83;;;;;;;12.06;100.00;97538.34;2610651;28;20051;-81
2022/09/16 04:20:22;;;;;;;6.25;3.20;;;;;;;12.02;100.00;97532.41;2610523;28;20041;-81
2022/09/16 04:21:39;;;;;;;9.02;2.95;;;;;;;12.02;100.00;97536.81;2609647;28;20091;-82
2022/09/16 04:22:55;;;;;;;5.07;3.03;;;;;;;11.95;100.00;97536.22;2609826;28;20051;-81
2022/09/16 04:24:11;;;;;;;5.80;2.97;;;;;;;12.01;100.00;97538.53;2610838;28;20041;-82
2022/09/16 04:25:27;;;;;;;5.07;2.72;;;;;;;12.02;100.00;97544.69;2611289;28;20049;-82
2022/09/16 04:26:43;;;;;;;4.57;3.13;;;;;;;11.85;100.00;97541.03;2609963;28;20055;-85
2022/09/16 04:27:59;;;;;;;3.90;2.83;;;;;;;11.98;100.00;97536.06;2611907;28;20131;-81
2022/09/16 04:29:16;;;;;;;7.60;2.88;;;;;;;12.02;100.00;97536.81;2611359;28;20483;-82
2022/09/16 04:30:32;;;;;;;3.97;2.60;;;;;;;12.08;100.00;97537.38;2612335;28;20063;-81
2022/09/16 04:31:48;;;;;;;4.65;2.83;;;;;;;11.98;100.00;97536.91;2610839;28;20875;-84
2022/09/16 04:33:03;;;;;;;6.78;3.22;;;;;;;11.90;100.00;97539.06;2611224;28;20048;-82
2022/09/16 04:34:18;;;;;;;3.85;2.70;;;;;;;11.85;100.00;97535.78;2611460;28;20052;-83
2022/09/16 04:35:34;;;;;;;5.28;3.03;;;;;;;11.82;100.00;97531.56;2612451;28;20135;-83
2022/09/16 04:36:50;;;;;;;5.50;3.35;;;;;;;11.94;100.00;97537.97;2610563;28;20060;-82
2022/09/16 04:38:05;;;;;;;9.10;2.75;;;;;;;11.94;100.00;97539.75;2605069;28;20055;-82
2022/09/16 04:39:21;;;;;;;4.50;3.10;;;;;;;11.76;100.00;97541.50;2610580;28;20053;-82
2022/09/16 04:40:38;;;;;;;3.97;2.78;;;;;;;11.72;100.00;97530.28;2611749;28;20919;-81
2022/09/16 04:41:54;;;;;;;5.45;3.45;;;;;;;11.66;100.00;97534.06;2611033;28;20530;-82
2022/09/16 04:43:10;;;;;;;5.10;3.03;;;;;;;11.46;100.00;97528.91;2612298;28;20041;-81
2022/09/16 04:44:26;;;;;;;3.97;2.88;;;;;;;11.35;100.00;97538.09;2610157;28;20048;-82
2022/09/16 04:45:42;;;;;;;5.18;3.20;;;;;;;11.31;100.00;97536.53;2610676;28;20044;-83
2022/09/16 04:46:57;;;;;;;6.97;3.20;;;;;;;11.35;100.00;97535.47;2611172;28;20088;-83
2022/09/16 04:48:13;;;;;;;7.10;3.42;;;;;;;11.32;100.00;97534.75;2612420;28;20127;-83
2022/09/16 04:49:28;;;;;;;8.77;3.80;;;;;;;11.49;100.00;97544.47;2610812;28;20055;-83
2022/09/16 04:50:44;;;;;;;5.75;3.35;;;;;;;11.43;100.00;97541.19;2611188;28;20364;-83
2022/09/16 04:52:00;;;;;;;5.03;3.63;;;;;;;11.48;100.00;97545.41;2609316;28;20095;-82
2022/09/16 04:53:15;;;;;;;7.53;3.80;;;;;;;11.59;100.00;97546.59;2611150;28;20048;-82
2022/09/16 04:54:31;;;;;;;5.25;3.70;;;;;;;11.57;100.00;97543.19;2611373;28;20045;-82
2022/09/16 04:55:47;;;;;;;7.28;3.80;;;;;;;11.54;100.00;97534.63;2612812;28;20080;-82
2022/09/16 04:57:02;;;;;;;6.97;3.95;;;;;;;11.56;100.00;97535.41;2612551;28;20049;-82
2022/09/16 04:58:18;;;;;;;8.98;3.75;;;;;;;11.59;100.00;97535.25;2616223;28;20102;-82
2022/09/16 04:59:33;;;;;;;7.78;3.60;;;;;;;11.63;100.00;97543.81;2617573;28;20048;-83
2022/09/16 05:00:49;;;;;;;6.28;4.00;;;;;;;11.62;100.00;97536.88;2616369;28;20056;-83
2022/09/16 05:02:05;;;;;;;7.50;5.05;;;;;;;11.72;100.00;97540.78;2615757;28;20048;-82
2022/09/16 05:03:20;;;;;;;15.32;9.30;;;;;;;11.70;100.00;97537.38;2611697;28;20048;-82
2022/09/16 05:04:36;;;;;;;9.25;5.45;;;;;;;11.73;100.00;97538.09;2610525;28;20040;-82
2022/09/16 05:05:51;;;;;;;6.97;4.47;;;;;;;11.82;100.00;97547.31;2608716;28;20178;-82
2022/09/16 05:07:07;;;;;;;8.70;4.35;;;;;;;11.77;100.00;97551.06;2610296;28;20521;-81
2022/09/16 05:08:23;;;;;;;6.13;4.15;;;;;;;11.80;100.00;97543.03;2610847;28;20132;-81
2022/09/16 05:09:38;;;;;;;6.35;4.35;;;;;;;11.85;100.00;97547.16;2610240;28;20052;-81
2022/09/16 05:10:54;;;;;;;5.60;3.47;;;;;;;11.68;100.00;97554.97;2610518;28;20067;-82
2022/09/16 05:12:10;;;;;;;7.32;3.83;;;;;;;11.69;100.00;97556.66;2611371;28;20054;-82
2022/09/16 05:13:25;;;;;;;6.55;3.13;;;;;;;11.77;100.00;97551.88;2609789;28;20392;-82
2022/09/16 05:14:41;;;;;;;5.10;3.22;;;;;;;11.88;100.00;97559.28;2609395;28;20048;-82
2022/09/16 05:16:01;;;;;;;4.90;3.20;;;;;;;11.75;100.00;97560.78;2610956;28;20088;-82
2022/09/16 05:17:17;;;;;;;4.47;3.42;;;;;;;11.78;100.00;97563.25;2609275;28;20051;-83
2022/09/16 05:18:37;;;;;;;7.25;3.38;;;;;;;11.67;100.00;97546.25;2609984;28;20412;-84
2022/09/16 05:19:52;;;;;;;3.95;3.38;;;;;;;11.87;100.00;97560.16;2610276;28;20080;-82
2022/09/16 05:21:11;;;;;;;6.53;3.17;;;;;;;11.89;100.00;97554.88;2610574;28;20594;-81
2022/09/16 05:22:27;;;;;;;5.55;3.40;;;;;;;11.82;100.00;97563.03;2611491;28;20090;-83
2022/09/16 05:23:43;;;;;;;3.85;3.10;;;;;;;11.81;100.00;97558.72;2610773;28;20052;-82
2022/09/16 05:24:58;;;;;;;7.93;3.47;;;;;;;11.79;100.00;97557.91;2610611;28;20220;-83
2022/09/16 05:26:25;;;;;;;8.60;3.43;;;;;;;11.79;100.00;97557.91;2610406;28;20052;-84
2022/09/16 05:27:41;;;;;;;4.90;3.28;;;;;;;11.73;100.00;97556.47;2610532;28;20053;-81
2022/09/16 05:29:00;;;;;;;8.48;3.95;;;;;;;11.58;100.00;97552.75;2611011;28;20059;-82
2022/09/16 05:30:16;;;;;;;10.07;3.92;;;;;;;11.66;100.00;97552.41;2610640;28;20041;-83
2022/09/16 05:31:34;;;;;;;4.80;3.35;;;;;;;11.79;100.00;97555.28;2611307;28;20123;-87
2022/09/16 05:32:53;;;;;;;10.38;3.90;;;;;;;11.67;100.00;97554.09;2609439;28;20106;-86
2022/09/16 05:34:17;;;;;;;7.22;3.97;;;;;;;11.78;100.00;97553.59;2610264;28;20045;-82
2022/09/16 05:35:32;;;;;;;5.05;3.42;;;;;;;11.70;100.00;97553.13;2609755;28;20059;-88
2022/09/16 05:36:52;;;;;;;7.93;3.60;;;;;;;11.81;100.00;97550.84;2610622;28;20632;-82
2022/09/16 05:38:08;;;;;;;8.13;3.88;;;;;;;11.96;100.00;97553.66;2608866;28;20052;-83
2022/09/16 05:39:24;;;;;;;5.78;3.58;;;;;;;11.90;100.00;97546.94;2610342;28;20048;-82
2022/09/16 05:40:42;;;;;;;9.93;4.40;;;;;;;11.98;100.00;97543.94;2610473;28;20056;-82
2022/09/16 05:41:58;;;;;;;5.30;3.65;;;;;;;12.09;100.00;97543.44;2609920;28;20080;-84
2022/09/16 05:43:14;;;;;;;5.07;3.40;;;;;;;12.09;100.00;97544.31;2610475;28;20059;-85
2022/09/16 05:44:29;;;;;;;7.32;3.75;;;;;;;11.95;100.00;97537.06;2609900;28;20407;-83
2022/09/16 05:45:50;;;;;;;7.20;3.28;;;;;;;11.97;100.00;97550.09;2609201;28;20192;-88
2022/09/16 05:47:06;;;;;;;8.40;3.65;;;;;;;12.07;100.00;97543.50;2611462;28;20048;-88
2022/09/16 05:48:23;;;;;;;6.20;3.80;;;;;;;12.08;100.00;97542.59;2610836;28;20064;-90
2022/09/16 05:49:38;;;;;;;7.43;3.53;;;;;;;12.00;100.00;97548.16;2609807;28;20049;-89
2022/09/16 05:51:05;;;;;;;4.97;3.80;;;;;;;12.07;100.00;97546.13;2610850;28;20438;-92
2022/09/16 05:52:20;;;;;;;7.60;4.00;;;;;;;12.06;100.00;97539.19;2610638;28;20095;-89
2022/09/16 05:53:36;;;;;;;6.28;4.03;;;;;;;12.06;100.00;97543.59;2610164;28;20106;-91
2022/09/16 05:54:51;;;;;;;5.50;3.67;;;;;;;12.11;100.00;97541.59;2609620;28;20049;-90
2022/09/16 05:56:10;;;;;;;6.75;3.50;;;;;;;12.10;100.00;97539.88;2610381;28;20082;-90
2022/09/16 05:57:25;;;;;;;5.90;3.60;;;;;;;12.08;100.00;97544.38;2611988;28;20082;-91
2022/09/16 05:58:42;;;;;;;6.03;3.75;;;;;;;12.14;100.00;97541.44;2611253;28;20052;-92
2022/09/16 05:59:57;;;;;;;6.75;4.07;;;;;;;12.06;100.00;97547.06;2611997;28;20048;-90
2022/09/16 06:01:16;;;;;;;6.40;4.13;;;;;;;12.11;100.00;97552.94;2610198;28;20505;-90
2022/09/16 06:02:32;;;;;;;5.95;3.90;;;;;;;12.12;100.00;97548.53;2610464;28;20079;-90
2022/09/16 06:03:50;;;;;;;5.72;3.60;;;;;;;12.02;100.00;97550.75;2612432;28;20563;-89
2022/09/16 06:05:05;;;;;;;6.75;3.85;;;;;;;11.95;100.00;97547.56;2611296;28;20053;-89
2022/09/16 06:06:30;;;;;;;9.32;4.32;;;;;;;11.93;100.00;97552.03;2610941;28;20061;-90
2022/09/16 06:07:46;;;;;;;6.25;3.85;;;;;;;12.02;100.00;97549.94;2610363;28;20053;-90
2022/09/16 06:09:20;;;;;;;6.47;3.85;;;;;;;12.06;100.00;97544.44;2614070;28;20135;-90
2022/09/16 06:10:38;;;;;;;8.75;3.80;;;;;;;12.04;100.00;97551.53;2611543;28;20080;-90
2022/09/16 06:11:53;;;;;;;7.20;3.90;;;;;;;12.20;100.00;97550.78;2611757;28;20051;-90
2022/09/16 06:13:09;;;;;;;6.05;4.13;;;;;;;12.32;100.00;97554.59;2610656;28;20495;-91
2022/09/16 06:14:25;;;;;;;6.72;3.88;;;;;;;12.36;100.00;97543.88;2612981;28;20143;-90
2022/09/16 06:15:53;;;;;;;5.78;3.78;;;;;;;12.40;100.00;97547.16;2612692;28;20055;-90
2022/09/16 06:17:09;;;;;;;6.15;3.83;;;;;;;12.40;100.00;97547.16;2611409;28;20060;-90